• Join FlightAware (Why Join?)
  • Login
  • US Flag 
01:24AM EST


 

Airport Tracker/Info


-or-


 

Live Flight TrackerFlight Track Log ✈ DAL1118 ✈ 05-Aug-2013 ✈ KSLC - KJAC

Flight Track Log - Related Links

Times and Time Zones

All times are in EDT time to prevent confusion due to time zone crossing. See the DAL1118 flight status page for this flight to view local times or setup timezone preferences in your user account.

Time Position Orientation Groundspeed Altitude Reporting Facility
EDT Latitude Longitude Course Direction KTS MPH feet Rate Location/Type
10:23PM 40.8100 -111.9639 37° Northeast 168 193 5,100  Level Salt Lake Center
10:24PM 40.8475 -111.9683 355° North 182 209 6,300 1,620 Climbing Salt Lake Center
10:25PM 40.9142 -111.9794 353° North 250 288 7,900 1,920 Climbing Salt Lake Center
10:27PM 41.1657 -111.8681 48° Northeast  Level FlightAware Approximate
10:27PM 41.0203 -111.9989 352° North 298 343 11,100  Level Salt Lake Center
10:28PM 41.2567 -111.7926 24° Northeast  Level FlightAware Approximate
10:28PM 41.1103 -111.9753 11° North 354 407 13,000  Level Salt Lake Center
10:29PM 41.3483 -111.7184 37° Northeast  Level FlightAware Approximate
10:29PM 41.1828 -111.8750 46° Northeast 368 423 15,800  Level Salt Lake Center
10:30PM 41.2700 -111.7942 35° Northeast 386 444 18,500 2,400 Climbing Salt Lake Center
10:31PM 41.3714 -111.7414 21° North 393 452 20,800 1,920 Climbing Salt Lake Center
10:32PM 41.4800 -111.6942 18° North 411 473 22,500 1,800 Climbing Salt Lake Center
10:33PM 41.6189 -111.6333 18° North 438 504 24,600 1,800 Climbing Salt Lake Center
10:34PM 41.7369 -111.5828 18° North 445 512 26,300 1,320 Climbing Salt Lake Center
10:35PM 41.8597 -111.5300 18° North 461 531 27,400 1,020 Climbing Salt Lake Center
10:36PM 41.9875 -111.4733 18° North 480 552 28,400 1,020 Climbing Salt Lake Center
10:37PM 42.1211 -111.4144 18° North 502 578 29,600 1,020 Climbing Salt Lake Center
10:38PM 42.2561 -111.3544 18° North 510 587 30,600 660 Climbing Salt Lake Center
10:39PM 42.3928 -111.2944 18° North 517 595 31,000 180 Climbing Salt Lake Center
10:40PM 42.5297 -111.2331 18° North 517 595 31,000  Level Salt Lake Center
10:41PM 42.6867 -111.1642 18° North 498 573 31,000 -300 Level Salt Lake Center
10:42PM 42.8269 -111.0978 19° North 506 582 30,400 -1,140 Descending Salt Lake Center
10:43PM 42.9550 -111.0411 18° North 505 581 28,700 -2,040 Descending Salt Lake Center
10:44PM 43.0786 -110.9836 19° North 494 568 26,200 -2,820 Descending Salt Lake Center
10:45PM 43.2147 -110.9211 19° North 464 534 23,000 -2,880 Descending Salt Lake Center
10:46PM 43.3258 -110.8606 22° Northeast 452 520 20,400 -3,300 Descending Salt Lake Center
10:47PM 43.4275 -110.7783 30° Northeast 428 493 16,200 -3,660 Descending Salt Lake Center
10:48PM 43.5236 -110.7067 28° Northeast 405 466 12,900 -1,980 Descending Salt Lake Center
10:49PM 43.6081 -110.6356 31° Northeast 307 353 12,200 -1,740 Descending Salt Lake Center
10:50PM 43.6719 -110.6294 North 272 313 9,400 -2,340 Descending Salt Lake Center
10:51PM 43.6675 -110.6950 265° West 226 260 7,500 -1,320 Descending Salt Lake Center
10:52PM 43.6356 -110.7236 213° Southwest 167 192 6,700 -780 Descending Salt Lake Center